首页
METAR-TAF:

METAR-TAF

机场 :

迪拜国际机场

杜拜, 阿拉伯联合酋长国

纬度: 25-15-10N, 经度: 055-21-52E, 海拔: 8米

当前天气观测

该预报发布于29分钟前的15:00 UTC
风速6节,风向,在西转西北东转东北之间变化
温度 37°C
湿度 57%
气压 997 hPa
能見度: 8000

METAR: OMDB 161500Z 35006KT 290V060 8000 NSC 37/27 Q0997 NOSIG

时间: 19:29 (15:29 UTC)

预报

该预报发布于4小时和34分钟前的10:55 UTC
预报有效从16日的 12点(UTC)到 17日的 18点(UTC)
风速12节,风向北转西北
能見度: 8000
成为
从 16日的 18点(UTC)到 16日的 20点(UTC)
风速5节,风向
几率 30%
从 17日的 01点(UTC)到 17日的 04点(UTC)
能見度: 4000
成为
从 17日的 07点(UTC)到 17日的 09点(UTC)
风速13节,风向西北
成为
从 17日的 16点(UTC)到 17日的 18点(UTC)
风速5节,风向东转东南

TAF: OMDB 161055Z 1612/1718 33012KT 8000 NSC BECMG 1618/1620 10005KT PROB30 1701/1704 4000 HZ BECMG 1707/1709 32013KT BECMG 1716/1718 12005KT

超过4000个机场的气象观测和天气预报(METAR&TAF报告)。

可查询的气象台以黄色和红色小点在地图上表示。

将鼠标移到小点上方,可查看气象台名称。

然后点击查看天气观测和预报。

如需切换地图:点击带黑十字的绿色按钮放大地图;点击带横线的绿色按钮缩小地图;或者点击绿色箭头查看邻近地区的地图。


METAR-TAF: